Time;durP1;ratioP1;P1;durP2;ratioP2;P2;SDS_P1;SDS_P2;PMS_P1;PMS_P2;Temp;Humidity;BMP_temperature;BMP_pressure;BME280_temperature;BME280_humidity;BME280_pressure;Samples;Min_cycle;Max_cycle;Signal;HPM_P1;HPM_P2
2022/03/29 00:00:53;;;;;;;;;;;7.40;99.90;;;;;;2170057;66;20126;-78
2022/03/29 00:03:35;;;;;;;;;;;7.40;99.90;;;;;;2169419;65;20045;-78
2022/03/29 00:06:17;;;;;;;;;;;7.40;99.90;;;;;;2169567;66;20475;-77
2022/03/29 00:08:58;;;;;;;;;;;7.40;99.90;;;;;;2167285;66;20352;-78
2022/03/29 00:11:44;;;;;;;;;;;7.50;99.90;;;;;;2162400;66;20156;-78
2022/03/29 00:14:28;;;;;;;;;;;7.50;99.90;;;;;;2159846;66;20450;-78
2022/03/29 00:17:11;;;;;;;;;;;7.60;99.90;;;;;;2169821;66;20052;-77
2022/03/29 00:19:57;;;;;;;;;;;7.50;99.90;;;;;;2157070;66;20206;-78
2022/03/29 00:22:41;;;;;;;;;;;7.50;99.90;;;;;;2154836;66;20228;-77
2022/03/29 00:25:26;;;;;;;;;;;7.70;99.90;;;;;;2146858;66;20107;-77
2022/03/29 00:28:07;;;;;;;;;;;7.40;99.90;;;;;;2162271;66;20070;-77
2022/03/29 00:30:49;;;;;;;;;;;7.40;99.90;;;;;;2168312;65;20616;-78
2022/03/29 00:33:32;;;;;;;;;;;7.40;99.90;;;;;;2154784;66;20116;-78
2022/03/29 00:36:17;;;;;;;;;;;7.40;99.90;;;;;;2175565;65;20689;-78
2022/03/29 00:38:59;;;;;;;;;;;7.90;99.90;;;;;;2184027;65;20069;-78
2022/03/29 00:41:40;;;;;;;;;;;7.40;99.90;;;;;;2169674;65;20552;-78
2022/03/29 00:44:25;;;;;;;;;;;7.30;99.90;;;;;;2156512;66;20053;-77
2022/03/29 00:47:06;;;;;;;;;;;7.30;99.90;;;;;;2144333;66;20058;-77
2022/03/29 00:49:47;;;;;;;;;;;7.40;99.90;;;;;;2134045;67;20246;-77
2022/03/29 00:52:29;;;;;;;;;;;7.30;99.90;;;;;;2136012;67;20215;-77
2022/03/29 00:55:12;;;;;;;;;;;7.30;99.90;;;;;;2149968;66;20222;-78
2022/03/29 00:57:55;;;;;;;;;;;7.30;99.90;;;;;;2131087;67;20051;-78
2022/03/29 01:00:40;;;;;;;;;;;7.30;99.90;;;;;;2135285;67;20104;-78
2022/03/29 01:03:25;;;;;;;;;;;7.30;99.90;;;;;;2147313;66;20047;-79
2022/03/29 01:06:05;;;;;;;;;;;7.30;99.90;;;;;;2146599;66;20484;-78
2022/03/29 01:08:48;;;;;;;;;;;7.30;99.90;;;;;;2142440;66;20167;-78
2022/03/29 01:11:32;;;;;;;;;;;7.30;99.90;;;;;;2154852;66;20593;-78
2022/03/29 01:14:14;;;;;;;;;;;7.30;99.90;;;;;;2141752;66;20143;-78
2022/03/29 01:19:58;;;;;;;;;;;7.20;99.90;;;;;;2160480;66;20123;-78
2022/03/29 01:22:40;;;;;;;;;;;7.20;99.90;;;;;;2137769;66;20143;-77
2022/03/29 01:25:28;;;;;;;;;;;7.20;99.90;;;;;;2127145;67;20060;-77
2022/03/29 01:28:15;;;;;;;;;;;7.20;99.90;;;;;;2132838;67;20295;-78
2022/03/29 01:30:59;;;;;;;;;;;7.10;99.90;;;;;;2124761;67;20591;-77
2022/03/29 01:33:42;;;;;;;;;;;7.10;99.90;;;;;;2118438;67;20611;-78
2022/03/29 01:36:25;;;;;;;;;;;7.10;99.90;;;;;;2109489;67;20063;-78
2022/03/29 01:39:09;;;;;;;;;;;7.10;99.90;;;;;;2093842;67;20074;-77
2022/03/29 01:41:51;;;;;;;;;;;7.10;99.90;;;;;;2120524;67;20302;-77
2022/03/29 01:44:32;;;;;;;;;;;7.10;99.90;;;;;;2110580;67;20177;-78
2022/03/29 01:47:18;;;;;;;;;;;7.50;99.90;;;;;;2107532;67;20609;-78
2022/03/29 01:49:59;;;;;;;;;;;7.20;99.90;;;;;;2119334;67;20262;-78
2022/03/29 01:52:45;;;;;;;;;;;7.20;99.90;;;;;;2118088;67;20248;-76
2022/03/29 01:55:26;;;;;;;;;;;7.20;99.90;;;;;;2104473;68;20528;-77
2022/03/29 01:58:08;;;;;;;;;;;7.10;99.90;;;;;;2105192;68;20125;-76
2022/03/29 02:00:50;;;;;;;;;;;7.10;99.90;;;;;;2106259;67;20165;-77
2022/03/29 02:03:31;;;;;;;;;;;7.20;99.90;;;;;;2105437;67;20193;-77
2022/03/29 02:06:14;;;;;;;;;;;7.20;99.90;;;;;;2100281;68;20052;-79
2022/03/29 02:08:59;;;;;;;;;;;7.10;99.90;;;;;;2068466;68;20297;-76
2022/03/29 02:11:41;;;;;;;;;;;7.10;99.90;;;;;;2117971;67;20277;-77
2022/03/29 02:14:23;;;;;;;;;;;7.10;99.90;;;;;;2118579;67;20729;-78
2022/03/29 02:17:07;;;;;;;;;;;7.20;99.90;;;;;;2119029;67;20674;-77
2022/03/29 02:19:50;;;;;;;;;;;7.10;99.90;;;;;;2125682;67;20675;-77
2022/03/29 02:22:34;;;;;;;;;;;7.10;99.90;;;;;;1899493;67;15906476;-77
2022/03/29 02:25:17;;;;;;;;;;;7.10;99.90;;;;;;2118333;67;20116;-77
2022/03/29 02:28:05;;;;;;;;;;;7.10;99.90;;;;;;2128166;67;20066;-78
2022/03/29 02:30:46;;;;;;;;;;;7.10;99.90;;;;;;2129153;66;20160;-78
2022/03/29 02:33:27;;;;;;;;;;;7.30;99.90;;;;;;2155536;66;20130;-78
2022/03/29 02:36:12;;;;;;;;;;;7.00;99.90;;;;;;2161896;66;20600;-78
2022/03/29 02:38:55;;;;;;;;;;;7.10;99.90;;;;;;2170586;65;20076;-78
2022/03/29 02:41:39;;;;;;;;;;;7.00;99.90;;;;;;2168678;65;20112;-77
2022/03/29 02:44:20;;;;;;;;;;;7.10;99.90;;;;;;2161870;66;20049;-78
2022/03/29 02:47:02;;;;;;;;;;;7.10;99.90;;;;;;2144408;66;20541;-77
2022/03/29 02:49:46;;;;;;;;;;;7.00;99.90;;;;;;2141039;66;20236;-78
2022/03/29 02:52:30;;;;;;;;;;;7.10;99.90;;;;;;2154501;66;20112;-77
2022/03/29 02:55:13;;;;;;;;;;;7.10;99.90;;;;;;2151744;66;20254;-77
2022/03/29 02:57:59;;;;;;;;;;;7.10;99.90;;;;;;2140090;66;20062;-77
2022/03/29 03:00:42;;;;;;;;;;;7.00;99.90;;;;;;2139781;66;20217;-78
2022/03/29 03:03:26;;;;;;;;;;;7.00;99.90;;;;;;2128398;67;20142;-77
2022/03/29 03:06:08;;;;;;;;;;;7.00;99.90;;;;;;2125434;67;20136;-77
2022/03/29 03:08:49;;;;;;;;;;;7.00;99.90;;;;;;2112228;67;20229;-77
2022/03/29 03:11:31;;;;;;;;;;;7.00;99.90;;;;;;2130912;67;20633;-78
2022/03/29 03:14:14;;;;;;;;;;;7.00;99.90;;;;;;2125103;67;20823;-77
2022/03/29 03:16:59;;;;;;;;;;;7.10;99.90;;;;;;2119715;67;20288;-77
2022/03/29 03:19:40;;;;;;;;;;;7.00;99.90;;;;;;2123683;67;20705;-77
2022/03/29 03:22:22;;;;;;;;;;;7.00;99.90;;;;;;2130512;67;20225;-78
2022/03/29 03:25:06;;;;;;;;;;;7.00;99.90;;;;;;2126500;67;20056;-78
2022/03/29 03:27:49;;;;;;;;;;;7.00;99.90;;;;;;2126083;67;20191;-78
2022/03/29 03:30:36;;;;;;;;;;;7.00;99.90;;;;;;2122754;67;20202;-77
2022/03/29 03:33:18;;;;;;;;;;;7.00;99.90;;;;;;2134174;67;20198;-78
2022/03/29 03:36:03;;;;;;;;;;;7.00;99.90;;;;;;2130738;67;20285;-77
2022/03/29 03:38:44;;;;;;;;;;;7.00;99.90;;;;;;2132650;67;20078;-78
2022/03/29 03:41:30;;;;;;;;;;;7.00;99.90;;;;;;2142768;66;20196;-78
2022/03/29 03:44:14;;;;;;;;;;;7.00;99.90;;;;;;2137103;67;20188;-78
2022/03/29 03:46:57;;;;;;;;;;;7.00;99.90;;;;;;2123983;67;20180;-78
2022/03/29 03:49:41;;;;;;;;;;;7.00;99.90;;;;;;2136575;67;20051;-78
2022/03/29 03:52:25;;;;;;;;;;;7.00;99.90;;;;;;2128987;67;20170;-78
2022/03/29 03:55:09;;;;;;;;;;;7.00;99.90;;;;;;2131551;67;20263;-78
2022/03/29 03:57:50;;;;;;;;;;;7.00;99.90;;;;;;2149195;66;20620;-77
2022/03/29 04:00:32;;;;;;;;;;;7.00;99.90;;;;;;2147863;66;20058;-77
2022/03/29 04:03:15;;;;;;;;;;;7.00;99.90;;;;;;2147754;66;20210;-78
2022/03/29 04:05:56;;;;;;;;;;;7.00;99.90;;;;;;2148786;66;20076;-77
2022/03/29 04:08:39;;;;;;;;;;;7.00;99.90;;;;;;2162948;66;20157;-77
2022/03/29 04:11:23;;;;;;;;;;;7.10;99.90;;;;;;2160978;66;20206;-77
2022/03/29 04:14:05;;;;;;;;;;;7.00;99.90;;;;;;2169946;65;20070;-78
2022/03/29 04:16:49;;;;;;;;;;;7.00;99.90;;;;;;2150315;66;20109;-77
2022/03/29 04:19:31;;;;;;;;;;;7.10;99.90;;;;;;2148917;66;20136;-77
2022/03/29 04:22:12;;;;;;;;;;;7.00;99.90;;;;;;2137911;66;20145;-77
2022/03/29 04:24:54;;;;;;;;;;;7.00;99.90;;;;;;2134311;67;20055;-78
2022/03/29 04:27:36;;;;;;;;;;;7.00;99.90;;;;;;2140351;67;20139;-77
2022/03/29 04:30:20;;;;;;;;;;;7.00;99.90;;;;;;2139928;66;20087;-78
2022/03/29 04:33:02;;;;;;;;;;;7.00;99.90;;;;;;2140483;67;20206;-78
2022/03/29 04:35:43;;;;;;;;;;;7.00;99.90;;;;;;2154212;66;20054;-78
2022/03/29 04:38:25;;;;;;;;;;;7.20;99.90;;;;;;2148078;66;20198;-78
2022/03/29 04:41:07;;;;;;;;;;;7.00;99.90;;;;;;2140879;67;21150;-78
2022/03/29 04:43:48;;;;;;;;;;;7.00;99.90;;;;;;2147111;66;20660;-77
2022/03/29 04:46:30;;;;;;;;;;;7.00;99.90;;;;;;2143807;66;20679;-78
2022/03/29 04:49:13;;;;;;;;;;;7.00;99.90;;;;;;2137362;67;20500;-77
2022/03/29 04:51:57;;;;;;;;;;;7.00;99.90;;;;;;2140050;66;20051;-77
2022/03/29 04:54:39;;;;;;;;;;;7.10;99.90;;;;;;2169823;66;20052;-78
2022/03/29 04:57:20;;;;;;;;;;;7.10;99.90;;;;;;2162308;66;20575;-77
2022/03/29 05:00:02;;;;;;;;;;;7.20;99.90;;;;;;2177200;65;20197;-78
2022/03/29 05:02:44;;;;;;;;;;;7.00;99.90;;;;;;2177551;65;20052;-77
2022/03/29 05:05:28;;;;;;;;;;;7.00;99.90;;;;;;2188243;65;20126;-77
2022/03/29 05:08:10;;;;;;;;;;;6.90;99.90;;;;;;2173568;65;20179;-77
2022/03/29 05:10:51;;;;;;;;;;;6.90;99.90;;;;;;2165938;65;20588;-77
2022/03/29 05:13:36;;;;;;;;;;;6.90;99.90;;;;;;2137259;66;20180;-77
2022/03/29 05:16:18;;;;;;;;;;;6.90;99.90;;;;;;2133489;66;20067;-78
2022/03/29 05:18:59;;;;;;;;;;;6.90;99.90;;;;;;2113449;67;20145;-77
2022/03/29 05:21:41;;;;;;;;;;;6.90;99.90;;;;;;2112235;67;20189;-77
2022/03/29 05:24:22;;;;;;;;;;;6.90;99.90;;;;;;2114377;67;20091;-78
2022/03/29 05:27:04;;;;;;;;;;;6.90;99.90;;;;;;2130860;67;20162;-78
2022/03/29 05:29:46;;;;;;;;;;;6.90;99.90;;;;;;2119645;67;20249;-78
2022/03/29 05:32:28;;;;;;;;;;;6.90;99.90;;;;;;2122761;67;20074;-78
2022/03/29 05:35:10;;;;;;;;;;;6.90;99.90;;;;;;2115212;67;20184;-79
2022/03/29 05:37:52;;;;;;;;;;;6.90;99.90;;;;;;2124882;67;20096;-78
2022/03/29 05:40:37;;;;;;;;;;;6.90;99.90;;;;;;2124065;67;20059;-78
2022/03/29 05:43:19;;;;;;;;;;;7.00;99.90;;;;;;2112783;67;20134;-78
2022/03/29 05:49:00;;;;;;;;;;;7.00;99.90;;;;;;2114792;67;20140;-77
2022/03/29 05:51:42;;;;;;;;;;;7.00;99.90;;;;;;2131040;67;20137;-78
2022/03/29 05:54:23;;;;;;;;;;;7.00;99.90;;;;;;2120751;67;20066;-77
2022/03/29 05:57:06;;;;;;;;;;;7.00;99.90;;;;;;2132368;67;20218;-77
2022/03/29 05:59:49;;;;;;;;;;;7.00;99.90;;;;;;2128671;67;20159;-78
2022/03/29 06:02:33;;;;;;;;;;;7.00;99.90;;;;;;2112267;67;20456;-78
2022/03/29 06:05:14;;;;;;;;;;;7.00;99.90;;;;;;2112561;67;20079;-78
2022/03/29 06:07:56;;;;;;;;;;;7.00;99.90;;;;;;2117593;67;20653;-75
2022/03/29 06:10:38;;;;;;;;;;;7.10;99.90;;;;;;2104130;67;20206;-76
2022/03/29 06:13:19;;;;;;;;;;;7.10;99.90;;;;;;2117306;67;20215;-77
2022/03/29 06:16:00;;;;;;;;;;;7.10;99.90;;;;;;2109818;67;20183;-75
2022/03/29 06:18:42;;;;;;;;;;;7.00;99.90;;;;;;2107367;67;20180;-75
2022/03/29 06:21:24;;;;;;;;;;;7.00;99.90;;;;;;2109521;67;20066;-74
2022/03/29 06:24:06;;;;;;;;;;;7.00;99.90;;;;;;2127523;67;20072;-77
2022/03/29 06:26:48;;;;;;;;;;;7.00;99.90;;;;;;2120320;67;20211;-76
2022/03/29 06:29:34;;;;;;;;;;;7.00;99.90;;;;;;2126618;67;20061;-75
2022/03/29 06:32:20;;;;;;;;;;;7.00;99.90;;;;;;2126967;67;20194;-76
2022/03/29 06:35:05;;;;;;;;;;;7.10;99.90;;;;;;2133006;67;20132;-76
2022/03/29 06:37:55;;;;;;;;;;;7.10;99.90;;;;;;2133413;66;20245;-75
2022/03/29 06:40:38;;;;;;;;;;;7.10;99.90;;;;;;2125807;67;20220;-77
2022/03/29 06:43:20;;;;;;;;;;;7.10;99.90;;;;;;2125299;67;20147;-74
2022/03/29 06:46:01;;;;;;;;;;;7.20;99.90;;;;;;2125513;67;20148;-78
2022/03/29 06:48:44;;;;;;;;;;;7.00;99.90;;;;;;2130848;67;20059;-77
2022/03/29 06:51:26;;;;;;;;;;;7.20;99.90;;;;;;2114637;67;20091;-77
2022/03/29 06:54:02;;;;;;;;;;;7.20;99.90;;;;;;2113642;67;20153;-76
2022/03/29 06:56:38;;;;;;;;;;;7.20;99.90;;;;;;2124769;67;20076;-78
2022/03/29 06:59:15;;;;;;;;;;;7.20;99.90;;;;;;2120311;67;20165;-76
2022/03/29 07:01:51;;;;;;;;;;;7.30;99.90;;;;;;2123384;67;20213;-78
2022/03/29 07:04:27;;;;;;;;;;;7.30;99.90;;;;;;2139284;66;20144;-79
2022/03/29 07:06:57;;;;;;;;;;;7.40;99.90;;;;;;2149296;66;20149;-79
2022/03/29 07:12:51;;;;;;;;;;;7.40;99.90;;;;;;2178874;65;20155;-79
2022/03/29 07:15:28;;;;;;;;;;;7.40;99.90;;;;;;2184145;65;20071;-80
2022/03/29 07:18:04;;;;;;;;;;;7.50;99.90;;;;;;2183683;65;20064;-77
2022/03/29 07:20:41;;;;;;;;;;;7.60;99.90;;;;;;2187762;65;20071;-77
2022/03/29 07:23:19;;;;;;;;;;;7.70;99.90;;;;;;2202538;64;20466;-77
2022/03/29 07:25:58;;;;;;;;;;;7.80;99.90;;;;;;2205329;64;20150;-77
2022/03/29 07:28:38;;;;;;;;;;;8.00;99.90;;;;;;2197345;64;20208;-77
2022/03/29 07:31:17;;;;;;;;;;;8.00;99.90;;;;;;2199001;65;20082;-77
2022/03/29 07:33:56;;;;;;;;;;;8.10;99.90;;;;;;2198614;64;20154;-77
2022/03/29 07:36:33;;;;;;;;;;;8.60;99.90;;;;;;2198145;65;20061;-77
2022/03/29 07:39:11;;;;;;;;;;;8.40;99.90;;;;;;2197473;64;20058;-77
2022/03/29 07:41:41;;;;;;;;;;;8.40;99.90;;;;;;2198812;64;20291;-78
2022/03/29 07:44:20;;;;;;;;;;;8.50;99.90;;;;;;2196043;65;20147;-77
2022/03/29 07:47:12;;;;;;;;;;;8.50;99.90;;;;;;2187600;64;20159;-78
2022/03/29 07:49:49;;;;;;;;;;;8.60;99.90;;;;;;2191610;64;20964;-81
2022/03/29 07:52:31;;;;;;;;;;;8.70;99.90;;;;;;2190780;64;20309;-77
2022/03/29 07:55:15;;;;;;;;;;;8.70;99.90;;;;;;2182649;64;20213;-78
2022/03/29 07:57:57;;;;;;;;;;;8.90;99.90;;;;;;2168309;65;20220;-78
2022/03/29 08:00:39;;;;;;;;;;;8.90;99.90;;;;;;2173022;65;20092;-79
2022/03/29 08:03:22;;;;;;;;;;;9.00;99.90;;;;;;2172277;65;20116;-78
2022/03/29 08:06:06;;;;;;;;;;;9.00;99.90;;;;;;2188406;65;20110;-76
2022/03/29 08:08:47;;;;;;;;;;;9.10;99.90;;;;;;2204028;65;20069;-77
2022/03/29 08:11:34;;;;;;;;;;;9.10;99.90;;;;;;2194606;65;20050;-77
2022/03/29 08:14:15;;;;;;;;;;;9.20;99.90;;;;;;2193522;65;20223;-77
2022/03/29 08:17:00;;;;;;;;;;;9.30;99.90;;;;;;2184023;65;20150;-74
2022/03/29 08:19:44;;;;;;;;;;;9.30;99.90;;;;;;2183896;65;20634;-76
2022/03/29 08:22:25;;;;;;;;;;;9.30;99.90;;;;;;2195565;65;20074;-75
2022/03/29 08:25:09;;;;;;;;;;;9.60;99.90;;;;;;2199089;65;20611;-76
2022/03/29 08:27:56;;;;;;;;;;;9.20;99.90;;;;;;2192587;65;20222;-77
2022/03/29 08:30:38;;;;;;;;;;;9.10;99.90;;;;;;2179615;65;20810;-75
2022/03/29 08:33:22;;;;;;;;;;;9.60;99.90;;;;;;2189465;65;20069;-76
2022/03/29 08:36:04;;;;;;;;;;;9.10;99.90;;;;;;2175634;65;20132;-77
2022/03/29 08:38:47;;;;;;;;;;;9.10;99.90;;;;;;2149412;66;20092;-76
2022/03/29 08:41:37;;;;;;;;;;;9.20;99.90;;;;;;2146596;66;20113;-78
2022/03/29 08:44:19;;;;;;;;;;;9.30;99.90;;;;;;2183707;65;20228;-77
2022/03/29 08:47:01;;;;;;;;;;;9.40;99.90;;;;;;2149708;66;20266;-75
2022/03/29 08:49:45;;;;;;;;;;;9.50;99.90;;;;;;2163869;66;20114;-76
2022/03/29 08:52:32;;;;;;;;;;;9.70;99.90;;;;;;2167366;65;20245;-77
2022/03/29 08:55:13;;;;;;;;;;;9.80;99.90;;;;;;2147912;66;20233;-79
2022/03/29 08:57:55;;;;;;;;;;;9.80;99.90;;;;;;2167619;66;20193;-77
2022/03/29 09:00:36;;;;;;;;;;;10.00;99.90;;;;;;2176876;65;20221;-77
2022/03/29 09:03:18;;;;;;;;;;;10.10;99.90;;;;;;2171076;65;20072;-79
2022/03/29 09:06:06;;;;;;;;;;;10.20;99.90;;;;;;2158118;66;20093;-81
2022/03/29 09:08:49;;;;;;;;;;;10.30;99.90;;;;;;2153480;66;20450;-81
2022/03/29 09:11:39;;;;;;;;;;;10.40;99.90;;;;;;2145226;66;20066;-78
2022/03/29 09:14:22;;;;;;;;;;;10.40;99.90;;;;;;2141254;67;20436;-79
2022/03/29 09:17:23;;;;;;;;;;;10.60;99.90;;;;;;2147400;66;20134;-77
2022/03/29 09:20:10;;;;;;;;;;;10.70;99.90;;;;;;2154134;66;20544;-78
2022/03/29 09:22:55;;;;;;;;;;;10.90;99.90;;;;;;2152955;66;20068;-83
2022/03/29 09:25:47;;;;;;;;;;;11.30;99.90;;;;;;2157230;66;20145;-79
2022/03/29 09:28:36;;;;;;;;;;;11.40;99.90;;;;;;2151749;66;20507;-77
2022/03/29 09:31:28;;;;;;;;;;;11.60;99.90;;;;;;2144368;66;20088;-80
2022/03/29 09:34:11;;;;;;;;;;;11.70;99.90;;;;;;2151612;66;20152;-80
2022/03/29 09:36:54;;;;;;;;;;;11.70;99.90;;;;;;2146896;66;20093;-81
2022/03/29 09:39:35;;;;;;;;;;;11.90;99.90;;;;;;2147046;66;20252;-82
2022/03/29 09:42:17;;;;;;;;;;;12.20;99.90;;;;;;2158383;66;20223;-80
2022/03/29 09:44:59;;;;;;;;;;;12.40;99.90;;;;;;2171636;65;20072;-81
2022/03/29 09:47:40;;;;;;;;;;;12.60;99.90;;;;;;2164406;66;20538;-79
2022/03/29 09:50:22;;;;;;;;;;;12.70;99.90;;;;;;2158738;66;20615;-79
2022/03/29 09:53:03;;;;;;;;;;;12.70;99.90;;;;;;2153084;66;20326;-79
2022/03/29 09:55:57;;;;;;;;;;;12.70;99.90;;;;;;2119440;66;20304;-79
2022/03/29 09:58:39;;;;;;;;;;;12.70;99.90;;;;;;2161582;66;20215;-80
2022/03/29 10:01:21;;;;;;;;;;;12.70;99.90;;;;;;2176950;65;20788;-78
2022/03/29 10:04:04;;;;;;;;;;;12.60;99.90;;;;;;2175158;65;20048;-82
2022/03/29 10:06:50;;;;;;;;;;;12.70;99.40;;;;;;2174204;65;20083;-83
2022/03/29 10:09:35;;;;;;;;;;;12.70;99.60;;;;;;2165600;66;20279;-81
2022/03/29 10:12:19;;;;;;;;;;;12.60;99.30;;;;;;2156357;66;20215;-80
2022/03/29 10:15:01;;;;;;;;;;;12.50;99.80;;;;;;2156042;66;20129;-81
2022/03/29 10:18:02;;;;;;;;;;;12.40;99.50;;;;;;2150284;66;20245;-80
2022/03/29 10:20:43;;;;;;;;;;;12.40;99.20;;;;;;2149344;66;20224;-81
2022/03/29 10:23:28;;;;;;;;;;;12.40;99.10;;;;;;2162053;66;20139;-78
2022/03/29 10:26:11;;;;;;;;;;;12.40;98.20;;;;;;2152455;66;20559;-78
2022/03/29 10:28:55;;;;;;;;;;;12.40;98.60;;;;;;2165696;66;20588;-79
2022/03/29 10:31:39;;;;;;;;;;;12.30;98.70;;;;;;2160916;66;20485;-81
2022/03/29 10:34:30;;;;;;;;;;;12.30;98.50;;;;;;2167251;66;20202;-80
2022/03/29 10:37:11;;;;;;;;;;;12.30;98.00;;;;;;2172990;65;20205;-76
2022/03/29 10:40:02;;;;;;;;;;;12.40;96.90;;;;;;2186599;65;20123;-76
2022/03/29 10:42:46;;;;;;;;;;;12.60;97.50;;;;;;2192380;65;20549;-78
2022/03/29 10:45:29;;;;;;;;;;;12.90;97.30;;;;;;2179721;65;20147;-77
2022/03/29 10:48:12;;;;;;;;;;;13.20;97.80;;;;;;2180055;65;20298;-77
2022/03/29 10:50:57;;;;;;;;;;;13.30;96.90;;;;;;2154702;66;20199;-77
2022/03/29 10:53:46;;;;;;;;;;;13.30;96.40;;;;;;2166359;66;20927;-77
2022/03/29 10:56:30;;;;;;;;;;;13.40;96.20;;;;;;2159476;66;20050;-78
2022/03/29 10:59:15;;;;;;;;;;;13.50;96.00;;;;;;2166059;65;20162;-79
2022/03/29 11:02:32;;;;;;;;;;;13.60;95.60;;;;;;2148629;66;20134;-81
2022/03/29 11:05:13;;;;;;;;;;;13.70;95.40;;;;;;2139380;67;20718;-77
2022/03/29 11:07:55;;;;;;;;;;;13.80;93.60;;;;;;2126579;67;20283;-79
2022/03/29 11:10:44;;;;;;;;;;;14.00;95.10;;;;;;2127409;67;20192;-79
2022/03/29 11:13:48;;;;;;;;;;;14.20;95.10;;;;;;2132214;67;20556;-80
2022/03/29 11:16:31;;;;;;;;;;;14.40;95.30;;;;;;2124721;67;20905;-80
2022/03/29 11:19:34;;;;;;;;;;;14.60;94.30;;;;;;2125733;67;20652;-79
2022/03/29 11:22:35;;;;;;;;;;;14.80;93.30;;;;;;2120603;67;20556;-77
2022/03/29 11:25:20;;;;;;;;;;;15.10;92.10;;;;;;2118811;67;20173;-75
2022/03/29 11:28:26;;;;;;;;;;;15.30;91.50;;;;;;2133126;67;20077;-77
2022/03/29 11:31:11;;;;;;;;;;;15.40;88.10;;;;;;2142008;66;20105;-78
2022/03/29 11:33:56;;;;;;;;;;;15.30;87.20;;;;;;2128519;67;20236;-78
2022/03/29 11:36:38;;;;;;;;;;;15.20;88.00;;;;;;2128439;67;20592;-84
2022/03/29 11:39:23;;;;;;;;;;;15.00;87.80;;;;;;2128810;67;20531;-81
2022/03/29 11:42:04;;;;;;;;;;;14.90;84.20;;;;;;2118926;67;20273;-82
2022/03/29 11:44:46;;;;;;;;;;;14.70;86.10;;;;;;2124955;67;20212;-81
2022/03/29 11:47:28;;;;;;;;;;;14.40;86.90;;;;;;2117570;67;20173;-82
2022/03/29 11:50:14;;;;;;;;;;;14.10;87.40;;;;;;2132122;66;20055;-83
2022/03/29 11:52:58;;;;;;;;;;;13.70;87.00;;;;;;2140295;66;20204;-76
2022/03/29 11:55:39;;;;;;;;;;;13.50;87.30;;;;;;2121677;67;20210;-77
2022/03/29 11:58:21;;;;;;;;;;;13.40;87.10;;;;;;2123909;67;20124;-79
2022/03/29 12:01:07;;;;;;;;;;;13.20;86.20;;;;;;2107437;67;20295;-78
2022/03/29 12:04:09;;;;;;;;;;;13.00;85.30;;;;;;2111862;67;20138;-77
2022/03/29 12:06:52;;;;;;;;;;;13.00;88.00;;;;;;2144582;66;20195;-77
2022/03/29 12:09:35;;;;;;;;;;;13.00;88.20;;;;;;2153316;66;20254;-77
2022/03/29 12:12:20;;;;;;;;;;;13.00;88.90;;;;;;2152239;66;20488;-78
2022/03/29 12:15:04;;;;;;;;;;;13.00;85.50;;;;;;2128715;67;20515;-78
2022/03/29 12:17:51;;;;;;;;;;;13.10;86.20;;;;;;2165262;66;20171;-78
2022/03/29 12:20:34;;;;;;;;;;;13.10;87.10;;;;;;2160964;66;20046;-79
2022/03/29 12:23:27;;;;;;;;;;;13.10;83.60;;;;;;2155279;66;20154;-77
2022/03/29 12:26:10;;;;;;;;;;;13.10;86.40;;;;;;2162153;66;20057;-76
2022/03/29 12:28:52;;;;;;;;;;;13.20;82.40;;;;;;2157598;66;20526;-76
2022/03/29 12:31:36;;;;;;;;;;;13.30;79.30;;;;;;2154390;66;20077;-78
2022/03/29 12:34:31;;;;;;;;;;;13.50;79.20;;;;;;2163150;65;20213;-77
2022/03/29 12:37:13;;;;;;;;;;;13.80;82.10;;;;;;2151931;66;20301;-78
2022/03/29 12:40:33;;;;;;;;;;;14.00;83.10;;;;;;2140026;66;20047;-82
2022/03/29 12:43:27;;;;;;;;;;;14.10;82.80;;;;;;2143256;66;20160;-83
2022/03/29 12:46:15;;;;;;;;;;;14.20;83.60;;;;;;2143285;66;20547;-84
2022/03/29 12:49:00;;;;;;;;;;;14.20;82.70;;;;;;2141424;66;20460;-80
2022/03/29 12:51:42;;;;;;;;;;;14.10;82.30;;;;;;2146320;66;20055;-78
2022/03/29 12:54:44;;;;;;;;;;;14.10;80.80;;;;;;2139655;66;20079;-81
2022/03/29 12:57:39;;;;;;;;;;;14.20;80.90;;;;;;2123726;67;20650;-80
2022/03/29 13:00:20;;;;;;;;;;;14.30;81.50;;;;;;2121494;67;20132;-80
2022/03/29 13:03:08;;;;;;;;;;;14.40;81.00;;;;;;2117296;67;20553;-79
2022/03/29 13:05:49;;;;;;;;;;;14.60;80.60;;;;;;2115373;67;20058;-80
2022/03/29 13:08:31;;;;;;;;;;;14.60;80.90;;;;;;2118131;67;20121;-79
2022/03/29 13:11:16;;;;;;;;;;;14.60;80.00;;;;;;2125877;67;21072;-77
2022/03/29 13:14:06;;;;;;;;;;;14.60;73.80;;;;;;2112935;67;20070;-80
2022/03/29 13:16:52;;;;;;;;;;;14.80;75.70;;;;;;2110034;67;20116;-78
2022/03/29 13:19:38;;;;;;;;;;;16.40;77.90;;;;;;2125407;67;20129;-78
2022/03/29 13:22:26;;;;;;;;;;;18.40;73.10;;;;;;2133701;66;20251;-78
2022/03/29 13:25:10;;;;;;;;;;;19.00;71.20;;;;;;2140029;66;20243;-77
2022/03/29 13:27:53;;;;;;;;;;;18.90;70.10;;;;;;2123585;67;20112;-78
2022/03/29 13:30:35;;;;;;;;;;;19.30;64.90;;;;;;2128897;67;20153;-79
2022/03/29 13:33:18;;;;;;;;;;;20.50;66.40;;;;;;2139229;66;20130;-78
2022/03/29 13:36:06;;;;;;;;;;;21.60;65.30;;;;;;2134168;67;20241;-79
2022/03/29 13:38:48;;;;;;;;;;;22.20;63.40;;;;;;2148607;66;20160;-81
2022/03/29 13:41:33;;;;;;;;;;;21.70;62.60;;;;;;2137981;66;20204;-82
2022/03/29 13:44:18;;;;;;;;;;;22.10;61.40;;;;;;2141185;67;20165;-81
2022/03/29 13:46:59;;;;;;;;;;;22.20;58.70;;;;;;2150869;66;20121;-81
2022/03/29 13:49:40;;;;;;;;;;;22.20;56.10;;;;;;2156190;66;20250;-85
2022/03/29 13:52:22;;;;;;;;;;;22.60;55.20;;;;;;2147835;66;20070;-82
2022/03/29 13:55:07;;;;;;;;;;;23.50;54.60;;;;;;2149281;66;20050;-79
2022/03/29 13:57:51;;;;;;;;;;;24.30;53.60;;;;;;2139635;67;20076;-79
2022/03/29 14:00:35;;;;;;;;;;;25.00;53.60;;;;;;2140165;66;20129;-77
2022/03/29 14:03:17;;;;;;;;;;;25.60;52.70;;;;;;2146646;66;20212;-78
2022/03/29 14:06:02;;;;;;;;;;;26.00;50.00;;;;;;2153923;66;20079;-78
2022/03/29 14:08:45;;;;;;;;;;;26.40;49.90;;;;;;2140443;66;20163;-80
2022/03/29 14:11:26;;;;;;;;;;;26.40;47.80;;;;;;2140393;66;20121;-79
2022/03/29 14:14:09;;;;;;;;;;;25.80;46.20;;;;;;2136452;67;20212;-80
2022/03/29 14:16:52;;;;;;;;;;;26.00;47.20;;;;;;2132949;67;20142;-81
2022/03/29 14:19:59;;;;;;;;;;;26.40;45.70;;;;;;2119091;67;20068;-79
2022/03/29 14:22:59;;;;;;;;;;;26.30;46.00;;;;;;2143898;66;20125;-78
2022/03/29 14:25:45;;;;;;;;;;;26.40;45.90;;;;;;2137224;66;20201;-78
2022/03/29 14:28:30;;;;;;;;;;;26.50;44.80;;;;;;2122790;67;20150;-79
2022/03/29 14:31:11;;;;;;;;;;;26.00;42.00;;;;;;2131089;67;20164;-75
2022/03/29 14:33:57;;;;;;;;;;;24.80;43.60;;;;;;2120763;67;20187;-76
2022/03/29 14:36:40;;;;;;;;;;;24.40;44.60;;;;;;2105005;67;20409;-76
2022/03/29 14:39:23;;;;;;;;;;;24.30;44.20;;;;;;2114879;67;20252;-75
2022/03/29 14:42:07;;;;;;;;;;;24.50;44.70;;;;;;2123007;67;20091;-77
2022/03/29 14:44:50;;;;;;;;;;;24.70;44.70;;;;;;2121114;67;20169;-76
2022/03/29 14:47:33;;;;;;;;;;;25.20;44.70;;;;;;2107107;67;20104;-77
2022/03/29 14:50:17;;;;;;;;;;;25.40;45.10;;;;;;2112411;67;20242;-82
2022/03/29 14:52:58;;;;;;;;;;;25.30;43.20;;;;;;2104229;67;20190;-81
2022/03/29 14:55:40;;;;;;;;;;;24.80;44.50;;;;;;2117539;67;20112;-83
2022/03/29 14:58:22;;;;;;;;;;;24.90;43.80;;;;;;2124921;67;20064;-83
2022/03/29 15:01:04;;;;;;;;;;;24.90;43.90;;;;;;2133546;67;20598;-77
2022/03/29 15:03:47;;;;;;;;;;;24.90;41.60;;;;;;2143470;66;20087;-80
2022/03/29 15:06:31;;;;;;;;;;;24.50;44.20;;;;;;2152791;66;20073;-78
2022/03/29 15:09:12;;;;;;;;;;;23.80;43.40;;;;;;2153669;66;20202;-78
2022/03/29 15:11:55;;;;;;;;;;;23.30;44.60;;;;;;2161680;66;20068;-75
2022/03/29 15:14:36;;;;;;;;;;;22.70;44.70;;;;;;2169646;65;20498;-77
2022/03/29 15:17:23;;;;;;;;;;;22.00;45.70;;;;;;2176580;65;20130;-77
2022/03/29 15:20:08;;;;;;;;;;;21.40;46.20;;;;;;2160410;66;20061;-78
2022/03/29 15:22:49;;;;;;;;;;;20.90;47.10;;;;;;2162432;66;20193;-79
2022/03/29 15:25:32;;;;;;;;;;;20.50;47.20;;;;;;2162948;66;20180;-78
2022/03/29 15:28:17;;;;;;;;;;;20.00;47.90;;;;;;2161125;66;20069;-76
2022/03/29 15:31:01;;;;;;;;;;;19.40;48.40;;;;;;2159400;66;20200;-79
2022/03/29 15:33:46;;;;;;;;;;;18.80;49.50;;;;;;2152490;66;20118;-79
2022/03/29 15:36:27;;;;;;;;;;;18.60;50.10;;;;;;2172160;65;20052;-80
2022/03/29 15:39:11;;;;;;;;;;;18.40;50.40;;;;;;2170008;65;20053;-76
2022/03/29 15:41:52;;;;;;;;;;;18.30;50.80;;;;;;2165654;65;20198;-79
2022/03/29 15:44:35;;;;;;;;;;;18.30;50.50;;;;;;2164430;65;20322;-75
2022/03/29 15:47:21;;;;;;;;;;;18.20;50.90;;;;;;2154680;66;20081;-79
2022/03/29 15:50:03;;;;;;;;;;;18.30;50.80;;;;;;2152531;66;20206;-76
2022/03/29 15:52:45;;;;;;;;;;;18.20;50.70;;;;;;2167917;65;20151;-77
2022/03/29 15:55:27;;;;;;;;;;;18.10;51.00;;;;;;2131866;66;20052;-78
2022/03/29 15:58:09;;;;;;;;;;;17.90;51.70;;;;;;2130842;66;20165;-76
2022/03/29 16:00:51;;;;;;;;;;;18.20;51.30;;;;;;2135670;66;20119;-77
2022/03/29 16:03:33;;;;;;;;;;;17.80;51.10;;;;;;2140353;66;20125;-77
2022/03/29 16:06:15;;;;;;;;;;;17.60;51.80;;;;;;2131827;66;20305;-77
2022/03/29 16:08:56;;;;;;;;;;;17.40;51.80;;;;;;2144047;65;20227;-78